createdAt,value
2016-11-04T00:00:58.880Z,0
2016-11-04T00:01:58.202Z,0
2016-11-04T00:02:58.294Z,0
2016-11-04T00:03:58.515Z,0
2016-11-04T00:04:58.061Z,0
2016-11-04T00:05:58.225Z,0
2016-11-04T00:06:58.099Z,0
2016-11-04T00:07:58.099Z,0
2016-11-04T00:08:58.662Z,0
2016-11-04T00:09:58.566Z,0
2016-11-04T00:10:58.907Z,0
2016-11-04T00:11:58.198Z,0
2016-11-04T00:12:58.077Z,0
2016-11-04T00:13:58.944Z,0
2016-11-04T00:14:58.074Z,0
2016-11-04T00:15:59.485Z,0
2016-11-04T00:16:58.564Z,0
2016-11-04T00:17:58.726Z,0
2016-11-04T00:18:58.143Z,0
2016-11-04T00:19:59.137Z,0
2016-11-04T00:20:58.976Z,0
2016-11-04T00:21:58.074Z,0
2016-11-04T00:22:58.125Z,0
2016-11-04T00:23:58.749Z,0
2016-11-04T00:24:58.448Z,0
2016-11-04T00:25:58.634Z,0
2016-11-04T00:26:58.106Z,0
2016-11-04T00:27:58.132Z,0
2016-11-04T00:28:58.093Z,0
2016-11-04T00:29:58.481Z,0
2016-11-04T00:30:58.232Z,0
2016-11-04T00:31:58.062Z,0
2016-11-04T00:32:58.141Z,0
2016-11-04T00:33:58.514Z,0
2016-11-04T00:34:58.522Z,0
2016-11-04T00:35:58.087Z,0
2016-11-04T00:36:58.282Z,0
2016-11-04T00:37:58.070Z,0
2016-11-04T00:38:58.153Z,0
2016-11-04T00:39:58.318Z,0
2016-11-04T00:40:58.223Z,0
2016-11-04T00:41:58.250Z,0
2016-11-04T00:42:58.269Z,0
2016-11-04T00:43:58.077Z,0
2016-11-04T00:44:58.062Z,0
2016-11-04T00:45:58.071Z,0
2016-11-04T00:46:58.168Z,0
2016-11-04T00:47:58.243Z,0
2016-11-04T00:48:58.144Z,0
2016-11-04T00:49:58.547Z,0
2016-11-04T00:50:58.180Z,0
2016-11-04T00:51:58.323Z,0
2016-11-04T00:52:58.683Z,0
2016-11-04T00:53:58.382Z,0
2016-11-04T00:54:58.320Z,0
2016-11-04T00:55:58.175Z,0
2016-11-04T00:56:58.164Z,0
2016-11-04T00:57:58.266Z,0
2016-11-04T00:58:58.212Z,0
2016-11-04T00:59:58.268Z,0
2016-11-04T01:00:58.333Z,0
2016-11-04T01:01:58.401Z,0
2016-11-04T01:02:58.219Z,0
2016-11-04T01:03:58.080Z,0
2016-11-04T01:04:58.071Z,0
2016-11-04T01:05:58.153Z,0
2016-11-04T01:06:58.141Z,0
2016-11-04T01:07:58.077Z,0
2016-11-04T01:08:58.078Z,0
2016-11-04T01:09:58.180Z,0
2016-11-04T01:10:58.042Z,0
2016-11-04T01:11:58.059Z,0
2016-11-04T01:12:58.154Z,0
2016-11-04T01:13:58.136Z,0
2016-11-04T01:14:58.097Z,0
2016-11-04T01:15:58.089Z,0
2016-11-04T01:16:58.080Z,0
2016-11-04T01:17:58.580Z,0
2016-11-04T01:18:58.167Z,0
2016-11-04T01:19:58.050Z,0
2016-11-04T01:20:58.090Z,0
2016-11-04T01:21:58.117Z,0
2016-11-04T01:22:58.116Z,0
2016-11-04T01:23:58.093Z,0
2016-11-04T01:24:58.165Z,0
2016-11-04T01:25:58.107Z,0
2016-11-04T01:26:58.165Z,0
2016-11-04T01:27:58.116Z,0
2016-11-04T01:28:58.155Z,0
2016-11-04T01:29:58.129Z,0
2016-11-04T01:30:58.093Z,0
2016-11-04T01:31:58.093Z,0
2016-11-04T01:32:58.091Z,0
2016-11-04T01:33:58.113Z,0
2016-11-04T01:34:58.089Z,0
2016-11-04T01:35:58.103Z,0
2016-11-04T01:36:58.063Z,0
2016-11-04T01:37:58.144Z,0
2016-11-04T01:38:58.149Z,0
2016-11-04T01:39:58.107Z,0
2016-11-04T01:40:58.940Z,0
2016-11-04T01:41:58.113Z,0
2016-11-04T01:42:58.180Z,0
2016-11-04T01:43:58.133Z,0
2016-11-04T01:44:58.118Z,0
2016-11-04T01:45:58.156Z,0
2016-11-04T01:46:58.103Z,0
2016-11-04T01:47:58.119Z,0
2016-11-04T01:48:58.127Z,0
2016-11-04T01:49:58.184Z,0
2016-11-04T01:50:58.159Z,0
2016-11-04T01:51:58.209Z,0
2016-11-04T01:52:59.102Z,0
2016-11-04T01:53:58.164Z,0
2016-11-04T01:54:58.138Z,0
2016-11-04T01:55:58.115Z,0
2016-11-04T01:56:58.140Z,0
2016-11-04T01:57:58.148Z,0
2016-11-04T01:58:58.382Z,0
2016-11-04T01:59:58.170Z,0
2016-11-04T02:00:58.222Z,0
2016-11-04T02:01:58.167Z,0
2016-11-04T02:02:58.187Z,0
2016-11-04T02:03:58.208Z,0
2016-11-04T02:04:58.155Z,0
2016-11-04T02:05:58.170Z,0
2016-11-04T02:06:58.142Z,0
2016-11-04T02:07:58.221Z,0
2016-11-04T02:08:58.235Z,0
2016-11-04T02:09:58.194Z,0
2016-11-04T02:10:58.203Z,0
2016-11-04T02:11:58.160Z,0
2016-11-04T02:12:58.159Z,0
2016-11-04T02:13:58.203Z,0
2016-11-04T02:14:58.195Z,0
2016-11-04T02:15:58.183Z,0
2016-11-04T02:16:58.304Z,0
2016-11-04T02:17:58.160Z,0
2016-11-04T02:18:58.477Z,0
2016-11-04T02:19:58.158Z,0
2016-11-04T02:20:58.133Z,0
2016-11-04T02:21:58.149Z,0
2016-11-04T02:22:58.216Z,0
2016-11-04T02:23:58.155Z,0
2016-11-04T02:24:58.360Z,0
2016-11-04T02:25:58.112Z,0
2016-11-04T02:26:58.118Z,0
2016-11-04T02:27:58.147Z,0
2016-11-04T02:28:58.176Z,0
2016-11-04T02:29:58.128Z,0
2016-11-04T02:30:58.147Z,0
2016-11-04T02:31:58.141Z,0
2016-11-04T02:32:58.126Z,0
2016-11-04T02:33:58.140Z,0
2016-11-04T02:34:58.118Z,0
2016-11-04T02:35:58.159Z,0
2016-11-04T02:36:58.246Z,0
2016-11-04T02:37:58.396Z,0
2016-11-04T02:38:58.227Z,0
2016-11-04T02:39:58.198Z,0
2016-11-04T02:40:58.173Z,0
2016-11-04T02:41:58.188Z,0
2016-11-04T02:42:58.178Z,0
2016-11-04T02:43:58.178Z,0
2016-11-04T02:44:58.166Z,0
2016-11-04T02:45:58.176Z,0
2016-11-04T02:46:58.151Z,0
2016-11-04T02:47:58.175Z,0
2016-11-04T02:48:58.140Z,0
2016-11-04T02:49:58.128Z,0
2016-11-04T02:50:58.136Z,0
2016-11-04T02:51:58.178Z,0
2016-11-04T02:52:58.138Z,0
2016-11-04T02:53:58.143Z,0
2016-11-04T02:54:58.217Z,0
2016-11-04T02:55:58.136Z,0
2016-11-04T02:56:58.115Z,0
2016-11-04T02:57:58.120Z,0
2016-11-04T02:58:58.126Z,0
2016-11-04T02:59:58.136Z,0
2016-11-04T03:00:58.143Z,0
2016-11-04T03:01:58.120Z,0
2016-11-04T03:02:58.169Z,0
2016-11-04T03:03:58.181Z,0
2016-11-04T03:04:58.164Z,0
2016-11-04T03:05:58.142Z,0
2016-11-04T03:06:58.165Z,0
2016-11-04T03:07:58.120Z,0
2016-11-04T03:08:58.155Z,0
2016-11-04T03:09:58.145Z,0
2016-11-04T03:10:58.155Z,0
2016-11-04T03:11:58.203Z,0
2016-11-04T03:12:58.201Z,0
2016-11-04T03:13:58.208Z,0
2016-11-04T03:14:58.175Z,0
2016-11-04T03:15:58.172Z,0
2016-11-04T03:16:58.184Z,0
2016-11-04T03:17:58.156Z,0
2016-11-04T03:18:58.929Z,0
2016-11-04T03:19:58.206Z,0
2016-11-04T03:20:58.213Z,0
2016-11-04T03:21:58.223Z,0
2016-11-04T03:22:58.206Z,0
2016-11-04T03:23:58.213Z,0
2016-11-04T03:24:58.184Z,0
2016-11-04T03:25:58.174Z,0
2016-11-04T03:26:58.169Z,0
2016-11-04T03:27:58.171Z,0
2016-11-04T03:28:58.191Z,0
2016-11-04T03:29:58.181Z,0
2016-11-04T03:30:58.150Z,0
2016-11-04T03:31:58.168Z,0
2016-11-04T03:32:58.221Z,0
2016-11-04T03:33:58.214Z,0
2016-11-04T03:34:58.187Z,0
2016-11-04T03:35:58.165Z,0
2016-11-04T03:36:58.219Z,0
2016-11-04T03:37:58.195Z,0
2016-11-04T03:38:59.376Z,0
2016-11-04T03:39:58.197Z,0
2016-11-04T03:40:58.228Z,0
2016-11-04T03:41:58.178Z,0
2016-11-04T03:42:58.206Z,0
2016-11-04T03:43:58.252Z,0
2016-11-04T03:44:58.238Z,0
2016-11-04T03:45:58.280Z,0
2016-11-04T03:46:58.233Z,0
2016-11-04T03:47:58.238Z,0
2016-11-04T03:48:58.248Z,0
2016-11-04T03:49:58.205Z,0
2016-11-04T03:50:58.232Z,0
2016-11-04T03:51:58.212Z,0
2016-11-04T03:52:58.204Z,0
2016-11-04T03:53:58.212Z,0
2016-11-04T03:54:58.292Z,0
2016-11-04T03:55:58.171Z,0
2016-11-04T03:56:58.191Z,0
2016-11-04T03:57:58.209Z,0
2016-11-04T03:58:58.232Z,0
2016-11-04T03:59:58.184Z,0
2016-11-04T04:00:58.177Z,0
2016-11-04T04:01:58.198Z,0
2016-11-04T04:02:58.215Z,0
2016-11-04T04:03:58.228Z,0
2016-11-04T04:04:58.196Z,0
2016-11-04T04:05:58.194Z,0
2016-11-04T04:06:58.226Z,0
2016-11-04T04:07:58.217Z,0
2016-11-04T04:08:58.266Z,0
2016-11-04T04:09:58.201Z,0
2016-11-04T04:10:58.229Z,0
2016-11-04T04:11:58.263Z,0
2016-11-04T04:12:58.210Z,0
2016-11-04T04:13:58.207Z,0
2016-11-04T04:14:58.198Z,0
2016-11-04T04:15:58.244Z,0
2016-11-04T04:16:58.231Z,0
2016-11-04T04:17:58.256Z,0
2016-11-04T04:18:58.228Z,0
2016-11-04T04:19:58.234Z,0
2016-11-04T04:20:58.240Z,0
2016-11-04T04:21:58.212Z,0
2016-11-04T04:22:58.197Z,0
2016-11-04T04:23:58.213Z,0
2016-11-04T04:24:58.178Z,0
2016-11-04T04:25:58.225Z,0
2016-11-04T04:26:58.252Z,0
2016-11-04T04:27:58.219Z,0
2016-11-04T04:28:58.271Z,0
2016-11-04T04:29:58.278Z,0
2016-11-04T04:30:58.269Z,0
2016-11-04T04:31:58.252Z,0
2016-11-04T04:32:58.244Z,0
2016-11-04T04:33:58.256Z,0
2016-11-04T04:34:58.204Z,0
2016-11-04T04:35:58.224Z,0
2016-11-04T04:36:58.245Z,0
2016-11-04T04:37:58.261Z,0
2016-11-04T04:38:58.212Z,0
2016-11-04T04:39:58.223Z,0
2016-11-04T04:40:58.238Z,0
2016-11-04T04:41:58.308Z,0
2016-11-04T04:42:58.222Z,0
2016-11-04T04:43:58.280Z,0
2016-11-04T04:44:58.230Z,0
2016-11-04T04:45:58.228Z,0
2016-11-04T04:46:58.263Z,0
2016-11-04T04:47:58.206Z,0
2016-11-04T04:48:58.283Z,0
2016-11-04T04:49:58.243Z,0
2016-11-04T04:50:58.237Z,0
2016-11-04T04:51:58.212Z,0
2016-11-04T04:52:58.186Z,0
2016-11-04T04:53:58.246Z,0
2016-11-04T04:54:58.225Z,0
2016-11-04T04:55:58.182Z,0
2016-11-04T04:56:58.230Z,0
2016-11-04T04:57:58.217Z,0
2016-11-04T04:58:58.256Z,0
2016-11-04T04:59:58.200Z,0
2016-11-04T05:00:58.239Z,0
2016-11-04T05:01:58.211Z,0
2016-11-04T05:02:58.203Z,0
2016-11-04T05:03:58.297Z,0
2016-11-04T05:04:58.230Z,0
2016-11-04T05:05:58.286Z,0
2016-11-04T05:06:58.269Z,0
2016-11-04T05:07:58.288Z,0
2016-11-04T05:08:58.277Z,0
2016-11-04T05:09:58.268Z,0
2016-11-04T05:10:58.227Z,0
2016-11-04T05:11:58.248Z,0
2016-11-04T05:12:58.276Z,0
2016-11-04T05:13:58.248Z,0
2016-11-04T05:14:58.269Z,0
2016-11-04T05:15:58.263Z,0
2016-11-04T05:16:58.354Z,0
2016-11-04T05:17:58.396Z,0
2016-11-04T05:18:58.345Z,0
2016-11-04T05:19:58.309Z,0
2016-11-04T05:20:58.367Z,0
2016-11-04T05:21:58.361Z,0
2016-11-04T05:22:58.482Z,0
2016-11-04T05:23:58.493Z,0
2016-11-04T05:24:58.547Z,0
2016-11-04T05:25:58.441Z,0
2016-11-04T05:26:58.467Z,0
2016-11-04T05:27:58.506Z,0
2016-11-04T05:28:58.470Z,0
2016-11-04T05:29:58.413Z,0
2016-11-04T05:30:58.493Z,0
2016-11-04T05:31:58.407Z,0
2016-11-04T05:32:58.469Z,0
2016-11-04T05:33:58.413Z,0
2016-11-04T05:34:58.345Z,0
2016-11-04T05:35:58.385Z,0
2016-11-04T05:36:58.419Z,0
2016-11-04T05:37:58.371Z,0
2016-11-04T05:38:58.681Z,0
2016-11-04T05:39:58.393Z,0
2016-11-04T05:40:58.393Z,0
2016-11-04T05:41:58.372Z,0
2016-11-04T05:42:58.435Z,0
2016-11-04T05:43:58.368Z,0
2016-11-04T05:44:58.332Z,0
2016-11-04T05:45:58.317Z,0
2016-11-04T05:46:58.297Z,0
2016-11-04T05:47:58.363Z,0
2016-11-04T05:48:58.269Z,0
2016-11-04T05:49:58.249Z,0
2016-11-04T05:50:58.250Z,0
2016-11-04T05:51:58.253Z,0
2016-11-04T05:52:58.296Z,0
2016-11-04T05:53:58.313Z,0
2016-11-04T05:54:58.376Z,0
2016-11-04T05:55:58.350Z,0
2016-11-04T05:56:58.407Z,0
2016-11-04T05:57:58.337Z,0
2016-11-04T05:58:58.362Z,0
2016-11-04T05:59:58.337Z,0
2016-11-04T06:00:58.321Z,4
2016-11-04T06:01:58.989Z,4
2016-11-04T06:02:58.298Z,0
2016-11-04T06:03:58.324Z,4
2016-11-04T06:04:58.342Z,8
2016-11-04T06:05:58.282Z,4
2016-11-04T06:06:58.306Z,8
2016-11-04T06:07:58.334Z,8
2016-11-04T06:08:58.330Z,12
2016-11-04T06:09:59.197Z,12
2016-11-04T06:10:58.298Z,12
2016-11-04T06:11:58.307Z,16
2016-11-04T06:12:58.353Z,20
2016-11-04T06:13:58.679Z,16
2016-11-04T06:14:58.389Z,20
2016-11-04T06:15:58.400Z,20
2016-11-04T06:16:58.359Z,24
2016-11-04T06:17:58.598Z,28
2016-11-04T06:18:58.360Z,28
2016-11-04T06:19:59.536Z,32
2016-11-04T06:20:58.325Z,36
2016-11-04T06:21:58.391Z,40
2016-11-04T06:22:58.471Z,48
2016-11-04T06:23:58.350Z,52
2016-11-04T06:24:58.355Z,56
2016-11-04T06:25:59.003Z,64
2016-11-04T06:26:58.349Z,72
2016-11-04T06:27:58.313Z,80
2016-11-04T06:28:58.672Z,84
2016-11-04T06:29:58.347Z,88
2016-11-04T06:30:58.347Z,92
2016-11-04T06:31:58.369Z,96
2016-11-04T06:32:58.315Z,104
2016-11-04T06:33:58.359Z,112
2016-11-04T06:34:58.328Z,116
2016-11-04T06:35:58.343Z,124
2016-11-04T06:36:58.342Z,132
2016-11-04T06:37:58.306Z,140
2016-11-04T06:38:58.371Z,148
2016-11-04T06:39:58.345Z,156
2016-11-04T06:40:58.558Z,172
2016-11-04T06:41:58.336Z,188
2016-11-04T06:42:58.342Z,200
2016-11-04T06:43:59.124Z,216
2016-11-04T06:44:58.370Z,228
2016-11-04T06:45:58.369Z,248
2016-11-04T06:46:58.384Z,264
2016-11-04T06:47:58.329Z,276
2016-11-04T06:48:58.369Z,288
2016-11-04T06:49:58.336Z,296
2016-11-04T06:50:58.321Z,304
2016-11-04T06:51:58.344Z,316
2016-11-04T06:52:58.346Z,324
2016-11-04T06:53:58.505Z,336
2016-11-04T06:54:58.359Z,344
2016-11-04T06:55:58.400Z,360
2016-11-04T06:56:59.210Z,372
2016-11-04T06:57:58.372Z,384
2016-11-04T06:58:58.824Z,400
2016-11-04T06:59:58.845Z,412
2016-11-04T07:00:58.337Z,424
2016-11-04T07:01:59.539Z,444
2016-11-04T07:02:59.421Z,456
2016-11-04T07:03:58.392Z,472
2016-11-04T07:04:58.324Z,488
2016-11-04T07:05:58.854Z,500
2016-11-04T07:06:58.371Z,512
2016-11-04T07:07:58.331Z,516
2016-11-04T07:08:58.313Z,524
2016-11-04T07:09:58.320Z,532
2016-11-04T07:10:58.692Z,540
2016-11-04T07:11:58.332Z,552
2016-11-04T07:12:58.350Z,568
2016-11-04T07:13:58.365Z,580
2016-11-04T07:14:58.315Z,592
2016-11-04T07:15:58.355Z,600
2016-11-04T07:17:02.244Z,616
2016-11-04T07:17:58.556Z,628
2016-11-04T07:18:59.440Z,636
2016-11-04T07:19:58.489Z,648
2016-11-04T07:20:58.457Z,668
2016-11-04T07:21:58.450Z,688
2016-11-04T07:22:58.518Z,704
2016-11-04T07:23:58.551Z,768
2016-11-04T07:24:58.472Z,880
2016-11-04T07:25:58.363Z,920
2016-11-04T07:26:58.946Z,868
2016-11-04T07:27:58.435Z,848
2016-11-04T07:28:58.857Z,852
2016-11-04T07:29:58.594Z,864
2016-11-04T07:31:07.054Z,884
2016-11-04T07:32:09.313Z,932
2016-11-04T07:33:03.777Z,1012
2016-11-04T07:34:01.101Z,1108
2016-11-04T07:35:09.263Z,1200
2016-11-04T07:36:07.092Z,1256
2016-11-04T07:37:08.962Z,1296
2016-11-04T07:38:08.305Z,1312
2016-11-04T07:39:07.070Z,1300
2016-11-04T07:40:08.527Z,1320
2016-11-04T07:41:08.383Z,1336
2016-11-04T07:42:07.763Z,1360
2016-11-04T07:43:08.240Z,1408
2016-11-04T07:44:08.876Z,1512
2016-11-04T07:45:07.482Z,1640
2016-11-04T07:46:07.949Z,1912
2016-11-04T07:47:07.507Z,2352
2016-11-04T07:48:07.583Z,2628
2016-11-04T07:49:06.948Z,2848
2016-11-04T07:50:08.083Z,3020
2016-11-04T07:51:07.611Z,3300
2016-11-04T07:52:08.447Z,3524
2016-11-04T07:53:08.333Z,3716
2016-11-04T07:54:05.479Z,3888
2016-11-04T07:55:06.817Z,4128
2016-11-04T07:56:06.964Z,4392
2016-11-04T07:57:07.563Z,4596
2016-11-04T07:58:05.254Z,4728
2016-11-04T07:59:03.790Z,4764
2016-11-04T07:59:58.429Z,4804
2016-11-04T08:00:58.435Z,4904
2016-11-04T08:01:58.489Z,5064
2016-11-04T08:02:58.443Z,5140
2016-11-04T08:03:58.461Z,5244
2016-11-04T08:04:58.410Z,5316
2016-11-04T08:05:58.436Z,5368
2016-11-04T08:06:58.506Z,5492
2016-11-04T08:07:59.514Z,5608
2016-11-04T08:08:58.625Z,5628
2016-11-04T08:09:58.421Z,5556
2016-11-04T08:10:58.411Z,5504
2016-11-04T08:11:58.925Z,5460
2016-11-04T08:12:58.384Z,5332
2016-11-04T08:13:58.854Z,5188
2016-11-04T08:14:58.386Z,5136
2016-11-04T08:15:58.390Z,5236
2016-11-04T08:16:58.411Z,5300
2016-11-04T08:17:59.086Z,5196
2016-11-04T08:18:58.413Z,5224
2016-11-04T08:19:58.458Z,5444
2016-11-04T08:20:58.475Z,5772
2016-11-04T08:21:59.075Z,5724
2016-11-04T08:22:58.400Z,5536
2016-11-04T08:23:58.503Z,5464
2016-11-04T08:24:58.396Z,5296
2016-11-04T08:25:59.738Z,4948
2016-11-04T08:27:07.562Z,4496
2016-11-04T08:28:31.390Z,4156
2016-11-04T08:29:23.437Z,4024
2016-11-04T08:30:12.189Z,4004
2016-11-04T08:31:30.886Z,4020
2016-11-04T08:32:09.653Z,4008
2016-11-04T08:32:58.455Z,4028
2016-11-04T08:33:58.485Z,4084
2016-11-04T08:34:58.426Z,4156
2016-11-04T08:35:58.448Z,4300
2016-11-04T08:36:58.459Z,4680
2016-11-04T08:37:58.422Z,5172
2016-11-04T08:38:58.505Z,5372
2016-11-04T08:39:58.388Z,5388
2016-11-04T08:40:58.450Z,5468
2016-11-04T08:41:59.959Z,5540
2016-11-04T08:42:58.411Z,5756
2016-11-04T08:43:58.512Z,5988
2016-11-04T08:44:58.394Z,6200
2016-11-04T08:45:58.418Z,6332
2016-11-04T08:46:58.451Z,6160
2016-11-04T08:47:58.434Z,5792
2016-11-04T08:48:58.398Z,5384
2016-11-04T08:49:58.451Z,5144
2016-11-04T08:50:58.384Z,5092
2016-11-04T08:51:58.461Z,5168
2016-11-04T08:52:58.368Z,5348
2016-11-04T08:53:58.461Z,5484
2016-11-04T08:55:00.503Z,5720
2016-11-04T08:55:58.448Z,5880
2016-11-04T08:56:58.411Z,5924
2016-11-04T08:57:58.443Z,6076
2016-11-04T08:58:58.482Z,6172
2016-11-04T08:59:58.444Z,6296
2016-11-04T09:00:58.442Z,6552
2016-11-04T09:01:58.483Z,6764
2016-11-04T09:02:58.464Z,6756
2016-11-04T09:03:58.484Z,6624
2016-11-04T09:04:58.416Z,6364
2016-11-04T09:05:58.682Z,5980
2016-11-04T09:06:58.447Z,5632
2016-11-04T09:07:58.474Z,5408
2016-11-04T09:08:58.468Z,5380
2016-11-04T09:09:58.485Z,5428
2016-11-04T09:10:58.911Z,5372
2016-11-04T09:11:58.466Z,5344
2016-11-04T09:12:58.461Z,5476
2016-11-04T09:13:59.528Z,5480
2016-11-04T09:14:58.511Z,5440
2016-11-04T09:15:58.731Z,5476
2016-11-04T09:17:01.108Z,5460
2016-11-04T09:17:58.622Z,5396
2016-11-04T09:18:58.536Z,5292
2016-11-04T09:19:58.564Z,5296
2016-11-04T09:20:58.630Z,5384
2016-11-04T09:21:58.796Z,5520
2016-11-04T09:22:58.506Z,5624
2016-11-04T09:23:58.670Z,5632
2016-11-04T09:24:58.590Z,5684
2016-11-04T09:25:58.628Z,5716
2016-11-04T09:26:58.580Z,5840
2016-11-04T09:27:58.542Z,5964
2016-11-04T09:28:58.687Z,6036
2016-11-04T09:29:58.649Z,6056
2016-11-04T09:30:58.710Z,6008
2016-11-04T09:31:58.512Z,6020
2016-11-04T09:32:58.478Z,6120
2016-11-04T09:33:58.659Z,6332
2016-11-04T09:34:58.534Z,6564
2016-11-04T09:35:58.792Z,6692
2016-11-04T09:36:58.467Z,6888
2016-11-04T09:37:58.677Z,7096
2016-11-04T09:38:58.526Z,7304
2016-11-04T09:39:58.659Z,7392
2016-11-04T09:40:58.642Z,7352
2016-11-04T09:41:58.634Z,7228
2016-11-04T09:42:58.838Z,7312
2016-11-04T09:44:03.000Z,7500
2016-11-04T09:44:58.617Z,7640
2016-11-04T09:45:58.896Z,7768
2016-11-04T09:46:58.627Z,7616
2016-11-04T09:47:58.549Z,7408
2016-11-04T09:48:58.716Z,7152
2016-11-04T09:49:58.751Z,6856
2016-11-04T09:50:58.648Z,6680
2016-11-04T09:51:58.635Z,6624
2016-11-04T09:52:58.693Z,6720
2016-11-04T09:53:58.644Z,6724
2016-11-04T09:54:58.536Z,6728
2016-11-04T09:56:02.859Z,6656
2016-11-04T09:57:00.354Z,6512
2016-11-04T09:57:58.515Z,6432
2016-11-04T09:58:58.463Z,6596
2016-11-04T09:59:59.100Z,6780
2016-11-04T10:00:58.575Z,7208
2016-11-04T10:01:58.428Z,7696
2016-11-04T10:02:59.021Z,8156
2016-11-04T10:03:58.891Z,8288
2016-11-04T10:04:58.483Z,8208
2016-11-04T10:05:58.636Z,8048
2016-11-04T10:06:58.511Z,8096
2016-11-04T10:07:58.486Z,8384
2016-11-04T10:08:58.553Z,8288
2016-11-04T10:09:58.531Z,8364
2016-11-04T10:10:58.524Z,8276
2016-11-04T10:11:58.458Z,8116
2016-11-04T10:12:58.467Z,7784
2016-11-04T10:13:58.508Z,7480
2016-11-04T10:14:58.508Z,7344
2016-11-04T10:15:58.521Z,7160
2016-11-04T10:16:58.648Z,7248
2016-11-04T10:17:58.612Z,7464
2016-11-04T10:18:58.529Z,7584
2016-11-04T10:19:58.462Z,7560
2016-11-04T10:20:58.618Z,7724
2016-11-04T10:21:58.976Z,7868
2016-11-04T10:22:58.771Z,7908
2016-11-04T10:23:58.528Z,8096
2016-11-04T10:24:58.531Z,7640
2016-11-04T10:25:58.536Z,7008
2016-11-04T10:26:58.534Z,6768
2016-11-04T10:27:58.477Z,6644
2016-11-04T10:28:58.494Z,6520
2016-11-04T10:29:58.517Z,6364
2016-11-04T10:30:58.469Z,6208
2016-11-04T10:31:58.476Z,6020
2016-11-04T10:32:58.536Z,5876
2016-11-04T10:33:58.570Z,5676
2016-11-04T10:34:58.607Z,5584
2016-11-04T10:35:58.542Z,5488
2016-11-04T10:36:58.548Z,5432
2016-11-04T10:37:58.573Z,5436
2016-11-04T10:38:58.629Z,5404
2016-11-04T10:39:59.047Z,5304
2016-11-04T10:40:58.557Z,5172
2016-11-04T10:41:58.640Z,5044
2016-11-04T10:42:59.404Z,4928
2016-11-04T10:43:58.562Z,4780
2016-11-04T10:44:59.204Z,4708
2016-11-04T10:45:58.545Z,4700
2016-11-04T10:46:58.568Z,4744
2016-11-04T10:47:58.536Z,4820
2016-11-04T10:48:58.520Z,4912
2016-11-04T10:49:58.642Z,4948
2016-11-04T10:50:58.597Z,5000
2016-11-04T10:51:58.536Z,4996
2016-11-04T10:52:58.947Z,5004
2016-11-04T10:53:58.601Z,5004
2016-11-04T10:54:58.604Z,5064
2016-11-04T10:55:58.552Z,5052
2016-11-04T10:56:58.551Z,5068
2016-11-04T10:57:58.605Z,5108
2016-11-04T10:58:58.641Z,5136
2016-11-04T10:59:58.895Z,5180
2016-11-04T11:00:59.031Z,5220
2016-11-04T11:01:59.283Z,5256
2016-11-04T11:02:58.673Z,5260
2016-11-04T11:03:58.597Z,5236
2016-11-04T11:04:58.612Z,5196
2016-11-04T11:05:58.728Z,5124
2016-11-04T11:06:58.714Z,5028
2016-11-04T11:07:58.586Z,4900
2016-11-04T11:08:58.615Z,4780
2016-11-04T11:09:58.583Z,4684
2016-11-04T11:10:58.555Z,4560
2016-11-04T11:11:58.647Z,4436
2016-11-04T11:12:58.998Z,4356
2016-11-04T11:13:58.578Z,4316
2016-11-04T11:14:58.748Z,4276
2016-11-04T11:15:58.585Z,4264
2016-11-04T11:16:58.731Z,4280
2016-11-04T11:17:58.681Z,4264
2016-11-04T11:18:58.731Z,4236
2016-11-04T11:19:58.520Z,4204
2016-11-04T11:20:58.567Z,4200
2016-11-04T11:21:58.708Z,4212
2016-11-04T11:22:58.719Z,4200
2016-11-04T11:23:58.655Z,4164
2016-11-04T11:24:58.665Z,4096
2016-11-04T11:25:58.578Z,4032
2016-11-04T11:26:58.640Z,3960
2016-11-04T11:27:58.665Z,3904
2016-11-04T11:28:58.889Z,3896
2016-11-04T11:29:58.572Z,3904
2016-11-04T11:30:58.665Z,3888
2016-11-04T11:31:58.635Z,3880
2016-11-04T11:32:58.608Z,3880
2016-11-04T11:33:58.765Z,3904
2016-11-04T11:34:58.534Z,3920
2016-11-04T11:35:58.964Z,3968
2016-11-04T11:36:58.597Z,4016
2016-11-04T11:37:58.718Z,4096
2016-11-04T11:38:58.569Z,4168
2016-11-04T11:39:58.622Z,4288
2016-11-04T11:40:58.600Z,4432
2016-11-04T11:41:58.587Z,4576
2016-11-04T11:42:58.562Z,4772
2016-11-04T11:43:58.598Z,4956
2016-11-04T11:44:58.576Z,5092
2016-11-04T11:45:58.568Z,5228
2016-11-04T11:46:58.610Z,5320
2016-11-04T11:47:58.617Z,5352
2016-11-04T11:48:58.626Z,5324
2016-11-04T11:49:58.651Z,5292
2016-11-04T11:50:58.633Z,5264
2016-11-04T11:51:58.652Z,5280
2016-11-04T11:52:58.742Z,5296
2016-11-04T11:53:58.815Z,5296
2016-11-04T11:54:58.578Z,5296
2016-11-04T11:55:59.253Z,5300
2016-11-04T11:56:58.613Z,5328
2016-11-04T11:57:58.774Z,5376
2016-11-04T11:58:58.597Z,5424
2016-11-04T11:59:58.582Z,5484
2016-11-04T12:00:58.575Z,5532
2016-11-04T12:01:58.598Z,5568
2016-11-04T12:02:58.557Z,5600
2016-11-04T12:03:58.594Z,5628
2016-11-04T12:05:01.436Z,5680
2016-11-04T12:05:58.637Z,5724
2016-11-04T12:06:59.230Z,5800
2016-11-04T12:08:05.182Z,5888
2016-11-04T12:08:58.647Z,5980
2016-11-04T12:09:59.387Z,6092
2016-11-04T12:10:58.675Z,6224
2016-11-04T12:11:58.770Z,6364
2016-11-04T12:12:58.642Z,6488
2016-11-04T12:13:58.667Z,6588
2016-11-04T12:14:58.758Z,6644
2016-11-04T12:15:58.752Z,6664
2016-11-04T12:16:59.164Z,6704
2016-11-04T12:17:58.675Z,6776
2016-11-04T12:18:58.770Z,6808
2016-11-04T12:19:58.682Z,6772
2016-11-04T12:20:58.670Z,6700
2016-11-04T12:21:58.623Z,6624
2016-11-04T12:22:58.624Z,6568
2016-11-04T12:23:58.623Z,6520
2016-11-04T12:24:58.619Z,6508
2016-11-04T12:25:58.620Z,6504
2016-11-04T12:26:58.601Z,6440
2016-11-04T12:27:58.618Z,6388
2016-11-04T12:28:58.598Z,6344
2016-11-04T12:29:59.270Z,6304
2016-11-04T12:30:58.595Z,6240
2016-11-04T12:31:58.619Z,6224
2016-11-04T12:32:58.594Z,6248
2016-11-04T12:33:58.639Z,6256
2016-11-04T12:34:59.378Z,6276
2016-11-04T12:35:58.605Z,6276
2016-11-04T12:36:58.639Z,6252
2016-11-04T12:37:58.826Z,6216
2016-11-04T12:38:58.621Z,6184
2016-11-04T12:39:58.604Z,6156
2016-11-04T12:40:58.560Z,6140
2016-11-04T12:41:58.608Z,6152
2016-11-04T12:42:58.639Z,6180
2016-11-04T12:43:58.626Z,6200
2016-11-04T12:44:58.661Z,6204
2016-11-04T12:45:58.604Z,6184
2016-11-04T12:46:58.639Z,6164
2016-11-04T12:47:58.650Z,6152
2016-11-04T12:48:59.086Z,6136
2016-11-04T12:49:58.640Z,6124
2016-11-04T12:50:58.589Z,6116
2016-11-04T12:51:58.594Z,6104
2016-11-04T12:52:58.659Z,6080
2016-11-04T12:53:58.598Z,6024
2016-11-04T12:54:58.596Z,5924
2016-11-04T12:55:58.679Z,5804
2016-11-04T12:56:58.944Z,5692
2016-11-04T12:57:58.624Z,5580
2016-11-04T12:58:58.626Z,5496
2016-11-04T12:59:59.475Z,5448
2016-11-04T13:00:58.694Z,5464
2016-11-04T13:01:58.656Z,5540
2016-11-04T13:02:58.613Z,5684
2016-11-04T13:03:58.590Z,5872
2016-11-04T13:04:58.770Z,6052
2016-11-04T13:05:58.594Z,6200
2016-11-04T13:06:58.595Z,6332
2016-11-04T13:07:58.704Z,6488
2016-11-04T13:09:03.312Z,6588
2016-11-04T13:09:58.674Z,6680
2016-11-04T13:10:58.722Z,6696
2016-11-04T13:11:58.647Z,6652
2016-11-04T13:12:58.665Z,6652
2016-11-04T13:13:59.053Z,6548
2016-11-04T13:14:58.675Z,6392
2016-11-04T13:16:01.010Z,6208
2016-11-04T13:16:58.879Z,5992
2016-11-04T13:17:58.629Z,5780
2016-11-04T13:18:58.659Z,5568
2016-11-04T13:19:58.800Z,5364
2016-11-04T13:21:02.019Z,5192
2016-11-04T13:21:58.697Z,5076
2016-11-04T13:22:59.151Z,4960
2016-11-04T13:23:59.792Z,4896
2016-11-04T13:25:03.855Z,4824
2016-11-04T13:25:58.723Z,4748
2016-11-04T13:26:58.735Z,4684
2016-11-04T13:28:03.384Z,4608
2016-11-04T13:28:59.170Z,4520
2016-11-04T13:29:58.780Z,4444
2016-11-04T13:31:02.573Z,4348
2016-11-04T13:31:58.825Z,4296
2016-11-04T13:32:58.639Z,4280
2016-11-04T13:33:58.866Z,4336
2016-11-04T13:35:00.287Z,4396
2016-11-04T13:36:03.625Z,4464
2016-11-04T13:37:01.587Z,4500
2016-11-04T13:37:58.965Z,4528
2016-11-04T13:39:05.083Z,4524
2016-11-04T13:39:59.094Z,4508
2016-11-04T13:40:58.784Z,4476
2016-11-04T13:41:59.379Z,4480
2016-11-04T13:42:58.909Z,4500
2016-11-04T13:44:02.239Z,4528
2016-11-04T13:45:00.409Z,4564
2016-11-04T13:45:58.700Z,4576
2016-11-04T13:46:58.781Z,4616
2016-11-04T13:47:58.882Z,4688
2016-11-04T13:48:58.786Z,4752
2016-11-04T13:49:58.934Z,4800
2016-11-04T13:50:59.558Z,4736
2016-11-04T13:51:59.846Z,4680
2016-11-04T13:53:14.070Z,4628
2016-11-04T13:53:58.967Z,4600
2016-11-04T13:54:59.810Z,4560
2016-11-04T13:55:59.216Z,4512
2016-11-04T13:56:58.796Z,4468
2016-11-04T13:57:59.715Z,4484
2016-11-04T13:58:58.959Z,4520